Time;durP1;ratioP1;P1;durP2;ratioP2;P2;SDS_P1;SDS_P2;PMS_P1;PMS_P2;Temp;Humidity;BMP_temperature;BMP_pressure;BME280_temperature;BME280_humidity;BME280_pressure;Samples;Min_cycle;Max_cycle;Signal;HPM_P1;HPM_P2
2023/07/31 00:00:38;;;;;;;2.75;1.55;;;;;;;16.05;100.00;100062.25;7665448;23;20191;-88
2023/07/31 00:03:40;;;;;;;3.92;1.50;;;;;;;15.86;100.00;100055.66;7664286;23;20395;-89
2023/07/31 00:06:41;;;;;;;1.98;1.52;;;;;;;15.82;100.00;100059.56;7664481;23;20028;-89
2023/07/31 00:09:43;;;;;;;2.28;1.13;;;;;;;15.77;100.00;100054.84;7663782;23;20017;-89
2023/07/31 00:12:45;;;;;;;3.47;1.30;;;;;;;15.75;100.00;100050.75;7665215;23;20021;-88
2023/07/31 00:15:47;;;;;;;1.70;1.60;;;;;;;15.73;100.00;100050.13;7664538;23;20567;-87
2023/07/31 00:18:49;;;;;;;3.22;1.55;;;;;;;15.74;100.00;100057.78;7665530;23;20122;-88
2023/07/31 00:21:50;;;;;;;1.63;1.38;;;;;;;15.76;100.00;100060.22;7665328;23;20021;-88
2023/07/31 00:24:52;;;;;;;2.38;1.48;;;;;;;15.81;100.00;100055.31;7665152;23;20021;-88
2023/07/31 00:27:54;;;;;;;3.65;1.40;;;;;;;15.81;100.00;100058.75;7663999;23;20255;-88
2023/07/31 00:30:56;;;;;;;1.40;1.20;;;;;;;15.82;100.00;100059.56;7662316;23;20549;-88
2023/07/31 00:34:00;;;;;;;1.80;1.02;;;;;;;15.79;100.00;100057.28;7638223;23;20207;-89
2023/07/31 00:37:02;;;;;;;2.35;1.17;;;;;;;15.81;100.00;100048.31;7638795;23;20017;-88
2023/07/31 00:40:04;;;;;;;1.83;1.25;;;;;;;15.76;100.00;100053.22;7664899;23;20059;-86
2023/07/31 00:43:06;;;;;;;2.28;1.35;;;;;;;15.71;100.00;100058.13;7663827;23;20356;-87
2023/07/31 00:46:09;;;;;;;3.20;1.40;;;;;;;15.68;100.00;100056.63;7637980;23;20025;-87
2023/07/31 00:49:12;;;;;;;2.22;1.25;;;;;;;15.66;100.00;100058.59;7665262;23;20499;-87
2023/07/31 00:52:14;;;;;;;1.83;1.30;;;;;;;15.69;100.00;100055.66;7665287;23;20180;-87
2023/07/31 00:55:16;;;;;;;1.48;1.30;;;;;;;15.64;100.00;100052.72;7664570;23;20438;-87
2023/07/31 00:58:18;;;;;;;1.60;1.27;;;;;;;15.60;100.00;100061.88;7638258;23;20355;-87
2023/07/31 01:01:21;;;;;;;2.55;1.20;;;;;;;15.60;100.00;100058.41;7662784;23;20021;-87
2023/07/31 01:04:24;;;;;;;2.97;1.63;;;;;;;15.61;100.00;100053.03;7661513;23;20021;-87
2023/07/31 01:07:52;;;;;;;1.95;1.40;;;;;;;15.59;100.00;100047.16;7637449;23;20024;-87
2023/07/31 01:11:15;;;;;;;1.60;1.20;;;;;;;15.61;100.00;100047.81;7664353;23;20021;-86
2023/07/31 01:14:16;;;;;;;4.22;1.48;;;;;;;15.61;100.00;100049.63;7665092;23;20089;-86
2023/07/31 01:17:18;;;;;;;3.33;1.33;;;;;;;15.58;100.00;100047.34;7664475;23;20048;-87
2023/07/31 01:20:23;;;;;;;5.70;1.70;;;;;;;15.62;100.00;100049.44;7662926;23;20021;-86
2023/07/31 01:23:40;;;;;;;2.53;1.33;;;;;;;15.64;100.00;100042.28;7637023;23;20033;-86
2023/07/31 01:26:47;;;;;;;1.65;1.38;;;;;;;15.63;100.00;100052.91;7636710;23;20114;-86
2023/07/31 01:30:14;;;;;;;1.40;1.30;;;;;;;15.61;100.00;100042.59;7663705;23;20017;-86
2023/07/31 01:33:17;;;;;;;2.40;1.25;;;;;;;15.58;100.00;100032.50;7635959;23;20025;-87
2023/07/31 01:36:18;;;;;;;2.05;1.33;;;;;;;15.53;100.00;100024.38;7663566;23;20027;-86
2023/07/31 01:39:21;;;;;;;3.00;1.50;;;;;;;15.49;100.00;100020.47;7662771;23;20021;-86
2023/07/31 01:42:22;;;;;;;1.63;1.40;;;;;;;15.47;100.00;100018.00;7664259;23;20027;-86
2023/07/31 01:45:24;;;;;;;1.13;1.02;;;;;;;15.47;100.00;100018.00;7660429;23;20281;-86
2023/07/31 01:48:26;;;;;;;2.35;1.20;;;;;;;15.46;100.00;100018.19;7636267;23;20080;-86
2023/07/31 01:51:28;;;;;;;1.23;1.00;;;;;;;15.46;100.00;100013.78;7637315;23;20222;-86
2023/07/31 01:54:30;;;;;;;2.33;1.10;;;;;;;15.45;100.00;100021.75;7663814;23;20355;-86
2023/07/31 01:57:32;;;;;;;1.10;0.90;;;;;;;15.45;100.00;100013.94;7637650;23;20021;-86
2023/07/31 02:00:34;;;;;;;1.30;0.80;;;;;;;15.44;100.00;100017.53;7661416;23;20029;-86
2023/07/31 02:03:35;;;;;;;1.70;1.42;;;;;;;15.48;100.00;100016.22;7636971;23;20159;-86
2023/07/31 02:06:38;;;;;;;0.77;0.77;;;;;;;15.54;100.00;100020.78;7664032;23;20103;-86
2023/07/31 02:09:40;;;;;;;1.13;0.98;;;;;;;15.51;100.00;100018.50;7637736;23;20025;-86
2023/07/31 02:12:42;;;;;;;2.58;0.90;;;;;;;15.52;100.00;100012.28;7636880;23;20025;-86
2023/07/31 02:15:45;;;;;;;1.08;0.80;;;;;;;15.55;100.00;100011.94;7663031;23;20644;-86
2023/07/31 02:18:47;;;;;;;1.10;0.70;;;;;;;15.62;100.00;100009.50;7660946;23;20031;-86
2023/07/31 02:21:49;;;;;;;0.82;0.65;;;;;;;15.59;100.00;100005.44;7661460;23;20028;-86
2023/07/31 02:24:50;;;;;;;1.30;0.82;;;;;;;15.58;100.00;100001.22;7663378;23;20021;-86
2023/07/31 02:27:52;;;;;;;1.40;0.60;;;;;;;15.53;100.00;99998.28;7662262;23;20047;-86
2023/07/31 02:30:54;;;;;;;1.85;0.85;;;;;;;15.52;100.00;100000.06;7636700;23;20337;-86
2023/07/31 02:33:56;;;;;;;1.33;0.75;;;;;;;15.53;100.00;99993.06;7663212;23;20021;-86
2023/07/31 02:36:57;;;;;;;1.33;0.70;;;;;;;15.51;100.00;99993.22;7637197;23;20021;-87
2023/07/31 02:40:00;;;;;;;1.10;0.70;;;;;;;15.50;100.00;99995.97;7662852;23;20017;-87
2023/07/31 02:43:03;;;;;;;1.90;0.70;;;;;;;15.48;100.00;99997.97;7664861;23;20065;-86
2023/07/31 02:46:05;;;;;;;0.70;0.65;;;;;;;15.43;100.00;99995.03;7663807;23;20025;-87
2023/07/31 02:49:07;;;;;;;0.70;0.70;;;;;;;15.40;100.00;99990.13;7662552;23;20021;-86
2023/07/31 02:52:08;;;;;;;1.48;0.88;;;;;;;15.39;100.00;99993.75;7661986;23;20035;-86
2023/07/31 02:55:10;;;;;;;2.15;0.90;;;;;;;15.39;100.00;99981.50;7665319;23;20021;-86
2023/07/31 02:58:12;;;;;;;2.30;0.80;;;;;;;15.43;100.00;99992.44;7665228;23;20276;-86
2023/07/31 03:01:14;;;;;;;1.05;0.70;;;;;;;15.42;100.00;99982.97;7664916;23;20025;-86
2023/07/31 03:04:17;;;;;;;1.17;1.00;;;;;;;15.42;100.00;99985.56;7664999;23;20017;-87
2023/07/31 03:07:19;;;;;;;1.10;0.80;;;;;;;15.41;100.00;99994.38;7665678;23;20021;-87
2023/07/31 03:10:21;;;;;;;2.67;1.38;;;;;;;15.40;100.00;100003.19;7664620;23;20028;-86
2023/07/31 03:13:23;;;;;;;1.13;0.80;;;;;;;15.39;100.00;99999.75;7661492;23;20439;-87
2023/07/31 03:16:24;;;;;;;1.23;0.90;;;;;;;15.34;100.00;99994.22;7665625;23;20025;-86
2023/07/31 03:19:26;;;;;;;1.05;0.90;;;;;;;15.35;100.00;100000.25;7662977;23;20021;-87
2023/07/31 03:22:28;;;;;;;1.85;1.10;;;;;;;15.31;100.00;99999.78;7665680;23;20396;-86
2023/07/31 03:25:30;;;;;;;1.05;1.00;;;;;;;15.33;100.00;100002.22;7638435;23;20818;-86
2023/07/31 03:28:32;;;;;;;1.58;1.00;;;;;;;15.35;100.00;99995.03;7639021;23;20025;-86
2023/07/31 03:31:33;;;;;;;1.95;1.02;;;;;;;15.37;100.00;100006.13;7665119;23;20452;-86
2023/07/31 03:34:35;;;;;;;1.40;1.20;;;;;;;15.35;100.00;100002.88;7639059;23;20029;-87
2023/07/31 03:37:40;;;;;;;4.68;1.30;;;;;;;15.35;100.00;100006.28;7663983;23;20031;-91
2023/07/31 03:40:42;;;;;;;5.85;1.35;;;;;;;15.39;100.00;100002.38;7639135;23;20017;-96
2023/07/31 03:43:48;;;;;;;3.15;1.05;;;;;;;15.43;100.00;100000.25;7638235;23;20048;-95
2023/07/31 03:46:50;;;;;;;3.33;1.27;;;;;;;15.36;100.00;99999.28;7614033;23;20455;-95
2023/07/31 03:49:53;;;;;;;1.27;1.10;;;;;;;15.37;100.00;100004.31;7638560;23;20052;-95
2023/07/31 03:52:56;;;;;;;1.00;0.88;;;;;;;15.33;100.00;99999.59;7664567;23;20091;-95
2023/07/31 03:55:57;;;;;;;1.45;1.10;;;;;;;15.34;100.00;100009.88;7665637;23;20021;-96
2023/07/31 03:59:00;;;;;;;1.55;0.98;;;;;;;15.26;100.00;99997.66;7664077;23;20641;-96
2023/07/31 04:02:01;;;;;;;2.35;0.93;;;;;;;15.28;100.00;100000.94;7665024;23;20317;-96
2023/07/31 04:05:03;;;;;;;1.52;1.15;;;;;;;15.31;100.00;99993.75;7664948;23;20111;-95
2023/07/31 04:08:05;;;;;;;1.02;0.88;;;;;;;15.31;100.00;99993.75;7664855;23;20021;-96
2023/07/31 04:11:07;;;;;;;2.67;0.95;;;;;;;15.33;100.00;99997.00;7665912;23;20048;-96
2023/07/31 04:14:09;;;;;;;1.42;0.80;;;;;;;15.36;100.00;100000.09;7667937;23;20048;-96
2023/07/31 04:17:11;;;;;;;1.58;1.05;;;;;;;15.32;100.00;99996.19;7680954;23;20108;-96
2023/07/31 04:20:14;;;;;;;1.50;1.00;;;;;;;15.33;100.00;99991.78;7645225;23;20021;-96
2023/07/31 04:23:15;;;;;;;2.42;1.08;;;;;;;15.30;100.00;100000.75;7638836;23;20017;-96
2023/07/31 04:26:18;;;;;;;1.77;1.08;;;;;;;15.32;100.00;100003.19;7665087;23;20017;-94
2023/07/31 04:29:20;;;;;;;0.80;0.80;;;;;;;15.32;100.00;100000.59;7663695;23;20028;-92
2023/07/31 04:32:22;;;;;;;3.25;0.98;;;;;;;15.35;100.00;100000.25;7664564;23;20032;-92
2023/07/31 04:35:23;;;;;;;2.67;0.75;;;;;;;15.28;100.00;99995.72;7665234;23;20391;-91
2023/07/31 04:38:25;;;;;;;1.73;0.80;;;;;;;15.24;100.00;99997.00;7664157;23;20029;-88
2023/07/31 04:41:27;;;;;;;3.83;0.82;;;;;;;15.27;100.00;100004.50;7664571;23;20045;-90
2023/07/31 04:44:30;;;;;;;3.78;0.70;;;;;;;15.24;100.00;99997.00;7664710;23;20021;-90
2023/07/31 04:47:32;;;;;;;1.02;0.50;;;;;;;15.26;100.00;100002.06;7662697;23;20207;-87
2023/07/31 04:50:34;;;;;;;0.40;0.40;;;;;;;15.22;100.00;99995.53;7664802;23;20025;-88
2023/07/31 04:53:36;;;;;;;1.35;0.40;;;;;;;15.19;100.00;99988.88;7665064;23;20050;-88
2023/07/31 04:56:38;;;;;;;2.97;0.60;;;;;;;15.20;100.00;99987.88;7638804;23;20127;-92
2023/07/31 04:59:41;;;;;;;0.63;0.50;;;;;;;15.23;100.00;99984.16;7663909;23;20447;-91
2023/07/31 05:02:43;;;;;;;1.02;0.40;;;;;;;15.23;100.00;99976.34;7663933;23;20119;-92
2023/07/31 05:05:45;;;;;;;0.38;0.38;;;;;;;15.39;100.00;99986.72;7664624;23;20021;-93
2023/07/31 05:08:47;;;;;;;1.05;0.50;;;;;;;15.52;100.00;99987.00;7662711;23;20060;-94
2023/07/31 05:11:49;;;;;;;0.40;0.40;;;;;;;15.55;100.00;99980.66;7663683;23;20021;-92
2023/07/31 05:14:51;;;;;;;2.00;0.70;;;;;;;15.59;100.00;99983.75;7664327;23;20454;-90
2023/07/31 05:17:53;;;;;;;1.05;0.93;;;;;;;15.50;100.00;99975.97;7663637;23;20470;-90
2023/07/31 05:20:54;;;;;;;1.80;1.20;;;;;;;15.44;100.00;99975.78;7663138;23;20028;-91
2023/07/31 05:23:56;;;;;;;3.55;1.63;;;;;;;15.42;100.00;99973.34;7664294;23;20339;-91
2023/07/31 05:26:58;;;;;;;3.83;2.35;;;;;;;15.52;100.00;99976.56;7663898;23;20021;-89
2023/07/31 05:30:00;;;;;;;4.40;3.30;;;;;;;15.53;100.00;99969.59;7662981;23;20106;-88
2023/07/31 05:33:02;;;;;;;6.68;4.13;;;;;;;15.44;100.00;99970.59;7664120;23;20024;-91
2023/07/31 05:36:04;;;;;;;5.28;4.40;;;;;;;15.47;100.00;99963.22;7637835;23;20021;-91
2023/07/31 05:39:08;;;;;;;7.45;4.97;;;;;;;15.47;100.00;99968.44;7664213;23;20021;-91
2023/07/31 05:42:10;;;;;;;7.80;4.63;;;;;;;15.50;100.00;99964.69;7664397;23;20025;-91
2023/07/31 05:45:13;;;;;;;8.93;5.00;;;;;;;15.52;100.00;99960.13;7663484;23;20053;-91
2023/07/31 05:48:15;;;;;;;7.47;4.55;;;;;;;15.47;100.00;99954.59;7663382;23;20021;-91
2023/07/31 05:51:17;;;;;;;8.30;5.10;;;;;;;15.56;100.00;99950.19;7664301;23;20025;-89
2023/07/31 05:54:18;;;;;;;13.43;5.85;;;;;;;15.58;100.00;99953.44;7662743;23;20021;-89
2023/07/31 05:57:20;;;;;;;9.15;5.30;;;;;;;15.52;100.00;99953.09;7637502;23;20473;-89
2023/07/31 06:00:22;;;;;;;7.57;5.60;;;;;;;15.50;100.00;99951.63;7663763;23;20021;-90
2023/07/31 06:03:24;;;;;;;9.13;6.43;;;;;;;15.51;100.00;99955.91;7663791;23;20051;-90
2023/07/31 06:06:26;;;;;;;10.00;6.47;;;;;;;15.44;100.00;99950.53;7663488;23;20021;-90
2023/07/31 06:09:29;;;;;;;11.23;6.25;;;;;;;15.49;100.00;99952.63;7661574;23;20028;-92
2023/07/31 06:12:32;;;;;;;8.77;5.25;;;;;;;15.56;100.00;99951.00;7663714;23;20102;-92
2023/07/31 06:15:34;;;;;;;9.43;5.47;;;;;;;15.57;100.00;99952.59;7638225;23;20025;-92
2023/07/31 06:18:36;;;;;;;9.23;5.28;;;;;;;15.59;100.00;99952.44;7667658;23;20025;-93
2023/07/31 06:21:39;;;;;;;9.43;5.57;;;;;;;15.53;100.00;99948.72;7640397;23;20017;-93
2023/07/31 06:24:41;;;;;;;9.90;5.43;;;;;;;15.48;100.00;99948.41;7640711;23;20021;-93
2023/07/31 06:27:43;;;;;;;10.93;5.60;;;;;;;15.45;100.00;99949.56;7641191;23;20064;-92
2023/07/31 06:30:45;;;;;;;11.32;5.10;;;;;;;15.46;100.00;99950.38;7639984;23;20032;-90
2023/07/31 06:33:47;;;;;;;6.50;5.03;;;;;;;15.46;100.00;99950.38;7667662;23;20025;-89
2023/07/31 06:36:48;;;;;;;9.55;4.45;;;;;;;15.44;100.00;99945.31;7668142;23;20020;-88
2023/07/31 06:39:50;;;;;;;8.90;5.13;;;;;;;15.39;100.00;99939.78;7667658;23;20028;-86
2023/07/31 06:42:52;;;;;;;7.93;5.68;;;;;;;15.40;100.00;99941.44;7667210;23;20028;-87
2023/07/31 06:45:53;;;;;;;8.55;5.60;;;;;;;15.42;100.00;99947.25;7667321;23;20017;-87
2023/07/31 06:48:55;;;;;;;11.43;6.13;;;;;;;15.41;100.00;99945.66;7667223;23;20028;-85
2023/07/31 06:51:57;;;;;;;12.50;7.97;;;;;;;15.41;100.00;99947.44;7667644;23;20025;-87
2023/07/31 06:55:19;;;;;;;16.00;7.13;;;;;;;15.40;100.00;99954.47;7641520;23;20021;-86
2023/07/31 06:58:21;;;;;;;13.75;7.53;;;;;;;15.45;100.00;99954.78;7667394;23;20028;-86
2023/07/31 07:01:23;;;;;;;14.02;7.80;;;;;;;15.43;100.00;99948.09;7641220;23;20325;-85
2023/07/31 07:04:25;;;;;;;14.75;9.23;;;;;;;15.51;100.00;99943.66;7667234;23;20021;-86
2023/07/31 07:07:26;;;;;;;12.25;8.68;;;;;;;15.48;100.00;99936.19;7667284;23;20028;-87
2023/07/31 07:10:29;;;;;;;14.40;9.13;;;;;;;15.51;100.00;99937.63;7666846;23;20143;-88
2023/07/31 07:13:31;;;;;;;14.60;9.48;;;;;;;15.52;100.00;99926.22;7639904;23;20025;-89
2023/07/31 07:16:32;;;;;;;15.20;9.30;;;;;;;15.58;100.00;99930.78;7667327;23;20024;-89
2023/07/31 07:19:34;;;;;;;18.92;9.65;;;;;;;15.58;100.00;99940.41;7667542;23;20085;-89
2023/07/31 07:22:36;;;;;;;17.42;9.98;;;;;;;15.51;100.00;99935.03;7670130;23;20025;-89
2023/07/31 07:25:38;;;;;;;19.13;10.02;;;;;;;15.65;100.00;99951.75;7643822;23;20090;-89
2023/07/31 07:28:40;;;;;;;18.20;10.45;;;;;;;15.69;100.00;99958.28;7667868;23;20458;-88
2023/07/31 07:31:42;;;;;;;15.85;9.98;;;;;;;15.78;100.00;99954.69;7667458;23;20021;-89
2023/07/31 07:34:44;;;;;;;16.10;9.93;;;;;;;16.02;100.00;99945.13;7667469;23;20088;-89
2023/07/31 07:37:49;;;;;;;14.55;10.23;;;;;;;16.29;100.00;99949.88;7667879;23;20025;-91
2023/07/31 07:40:54;;;;;;;14.68;9.43;;;;;;;16.41;100.00;99947.69;7667553;23;20025;-92
2023/07/31 07:43:56;;;;;;;15.27;9.25;;;;;;;16.44;100.00;99933.44;7667774;23;20032;-91
2023/07/31 07:46:57;;;;;;;13.35;8.32;;;;;;;16.45;100.00;99924.66;7640983;23;20391;-91
2023/07/31 07:49:59;;;;;;;14.27;8.50;;;;;;;16.62;100.00;99923.53;7667457;23;20428;-93
2023/07/31 07:53:01;;;;;;;15.38;7.88;;;;;;;16.77;100.00;99913.13;7667399;23;20035;-94
2023/07/31 07:56:03;;;;;;;14.15;8.38;;;;;;;17.02;100.00;99885.00;7640531;23;20041;-95
2023/07/31 07:59:06;;;;;;;15.85;7.72;;;;;;;17.34;100.00;99883.00;7667428;23;20052;-96
2023/07/31 08:02:08;;;;;;;10.05;5.80;;;;;;;17.33;100.00;99884.81;7662152;23;20025;-95
2023/07/31 08:05:11;;;;;;;9.32;6.32;;;;;;;17.24;100.00;99896.34;7666423;23;20052;-93
2023/07/31 08:08:19;;;;;;;9.48;5.90;;;;;;;17.56;100.00;99871.59;7663702;23;20547;-94
2023/07/31 08:11:23;;;;;;;11.48;5.63;;;;;;;17.97;100.00;99873.72;7666867;23;20021;-94
2023/07/31 08:14:25;;;;;;;13.13;5.47;;;;;;;18.02;100.00;99867.94;7666865;23;20427;-95
2023/07/31 08:17:27;;;;;;;12.48;5.57;;;;;;;18.03;100.00;99865.13;7666479;23;20025;-95
2023/07/31 08:20:29;;;;;;;10.10;5.10;;;;;;;18.06;100.00;99861.31;7667144;23;20017;-94
2023/07/31 08:23:31;;;;;;;9.43;5.47;;;;;;;17.97;100.00;99851.97;7665735;23;20478;-95
2023/07/31 08:26:33;;;;;;;9.60;5.82;;;;;;;17.70;100.00;99856.06;7666889;23;20028;-94
2023/07/31 08:29:35;;;;;;;11.52;5.40;;;;;;;17.44;100.00;99857.38;7640194;23;20021;-94
2023/07/31 08:32:39;;;;;;;10.32;5.05;;;;;;;17.28;100.00;99862.81;7667507;23;20029;-96
2023/07/31 08:35:41;;;;;;;8.65;4.82;;;;;;;17.17;100.00;99858.84;7671747;23;20328;-96
2023/07/31 08:38:45;;;;;;;9.65;5.43;;;;;;;17.07;100.00;99860.88;7674056;23;20024;-95
2023/07/31 08:41:47;;;;;;;8.05;5.20;;;;;;;16.91;100.00;99867.91;7676778;23;20276;-96
2023/07/31 08:44:50;;;;;;;10.77;5.07;;;;;;;16.73;100.00;99867.41;7675318;23;20102;-96
2023/07/31 08:47:52;;;;;;;9.48;5.13;;;;;;;16.64;100.00;99865.84;7686210;23;20025;-96
2023/07/31 08:50:54;;;;;;;9.68;5.22;;;;;;;16.63;100.00;99867.66;7685568;23;20021;-96
2023/07/31 08:53:57;;;;;;;8.63;5.43;;;;;;;16.72;100.00;99871.00;7670745;23;20021;-96
2023/07/31 08:57:00;;;;;;;10.70;5.10;;;;;;;16.96;100.00;99870.81;7701055;23;20044;-96
2023/07/31 09:00:06;;;;;;;8.20;4.65;;;;;;;17.14;100.00;99867.88;7701258;23;20020;-96
2023/07/31 09:03:15;;;;;;;7.28;4.03;;;;;;;17.12;100.00;99850.72;7674016;23;20009;-96
2023/07/31 09:06:20;;;;;;;9.68;5.10;;;;;;;17.19;100.00;99851.59;7710979;23;20019;-96
2023/07/31 09:09:22;;;;;;;8.18;5.18;;;;;;;17.34;100.00;99862.91;7661280;23;20040;-96
2023/07/31 09:12:25;;;;;;;6.78;4.63;;;;;;;17.43;100.00;99856.56;7675744;23;20071;-96
2023/07/31 09:15:28;;;;;;;7.38;4.30;;;;;;;17.54;100.00;99839.59;7671294;23;20367;-96
2023/07/31 09:18:56;;;;;;;5.53;4.30;;;;;;;17.48;100.00;99831.66;7673390;23;20017;-96
2023/07/31 09:21:59;;;;;;;6.93;3.80;;;;;;;17.55;100.00;99828.13;7659925;23;20021;-96
2023/07/31 09:25:21;;;;;;;6.78;3.78;;;;;;;17.57;100.00;99828.75;7678690;23;20021;-96
2023/07/31 09:28:31;;;;;;;4.50;3.25;;;;;;;17.50;100.00;99829.66;7663673;23;20457;-96
2023/07/31 09:31:33;;;;;;;5.18;3.00;;;;;;;17.57;100.00;99830.56;7663841;23;20071;-96
2023/07/31 09:34:39;;;;;;;2.83;2.25;;;;;;;18.02;100.00;99823.41;7667661;23;20032;-89
2023/07/31 09:37:41;;;;;;;4.63;2.30;;;;;;;18.47;100.00;99806.47;7664316;23;20532;-90
2023/07/31 09:40:48;;;;;;;2.30;1.90;;;;;;;18.48;100.00;99812.50;7664680;23;20027;-89
2023/07/31 09:43:56;;;;;;;2.88;2.00;;;;;;;18.23;100.00;99814.72;7665191;23;20119;-91
2023/07/31 09:46:59;;;;;;;2.53;1.83;;;;;;;17.99;100.00;99811.50;7669162;23;20027;-96
2023/07/31 09:50:00;;;;;;;3.65;1.60;;;;;;;17.95;100.00;99799.78;7675600;23;20021;-96
2023/07/31 09:53:04;;;;;;;2.10;1.77;;;;;;;18.08;100.00;99793.84;7677386;23;20021;-96
2023/07/31 09:56:06;;;;;;;2.33;1.67;;;;;;;18.25;100.00;99797.81;7672670;23;20021;-96
2023/07/31 09:59:11;;;;;;;3.10;1.90;;;;;;;18.40;100.00;99784.63;7668867;23;20025;-96
2023/07/31 10:02:17;;;;;;;2.22;1.80;;;;;;;18.45;100.00;99773.56;7672001;23;20021;-96
2023/07/31 10:05:19;;;;;;;3.13;1.70;;;;;;;18.43;100.00;99771.16;7670063;23;20435;-95
2023/07/31 10:08:31;;;;;;;3.05;1.75;;;;;;;18.35;100.00;99768.66;7670975;23;20139;-96
2023/07/31 10:11:50;;;;;;;2.78;1.60;;;;;;;18.28;100.00;99767.81;7668251;23;20439;-96
2023/07/31 10:14:55;;;;;;;2.13;1.92;;;;;;;18.29;100.00;99765.00;7670205;23;20111;-96
2023/07/31 10:17:58;;;;;;;3.90;1.90;;;;;;;18.32;100.00;99768.25;7673242;23;20091;-95
2023/07/31 10:21:00;;;;;;;3.45;2.25;;;;;;;18.35;100.00;99770.50;7644495;23;20021;-96
2023/07/31 10:24:04;;;;;;;3.17;1.80;;;;;;;18.29;100.00;99764.22;7671153;23;20021;-96
2023/07/31 10:27:07;;;;;;;3.47;1.70;;;;;;;18.17;100.00;99769.16;7667192;23;20320;-96
2023/07/31 10:30:16;;;;;;;1.95;1.75;;;;;;;18.14;100.00;99768.72;7667175;23;20017;-96
2023/07/31 10:33:21;;;;;;;3.08;2.10;;;;;;;18.19;100.00;99748.00;7668119;23;20032;-96
2023/07/31 10:36:23;;;;;;;1.80;1.70;;;;;;;18.34;100.00;99747.91;7669517;23;20083;-96
2023/07/31 10:39:36;;;;;;;2.92;1.70;;;;;;;18.54;100.00;99742.81;7666790;23;20426;-95
2023/07/31 10:42:49;;;;;;;3.33;2.03;;;;;;;18.42;100.00;99742.53;7666606;23;20025;-96
2023/07/31 10:45:51;;;;;;;2.45;1.98;;;;;;;18.16;100.00;99743.97;7666480;23;20017;-96
2023/07/31 10:49:03;;;;;;;3.85;2.20;;;;;;;18.01;100.00;99744.03;7666604;23;20025;-96
2023/07/31 10:52:05;;;;;;;4.32;2.42;;;;;;;18.00;100.00;99744.22;7663915;23;20188;-96
2023/07/31 10:55:34;;;;;;;3.75;1.90;;;;;;;18.17;100.00;99744.75;7665215;23;20021;-96
2023/07/31 10:58:37;;;;;;;2.53;2.20;;;;;;;18.36;100.00;99740.66;7664178;23;20021;-93
2023/07/31 11:01:57;;;;;;;4.00;2.20;;;;;;;18.42;100.00;99724.97;7664200;23;20028;-95
2023/07/31 11:05:07;;;;;;;2.35;2.10;;;;;;;18.48;100.00;99729.47;7667442;23;20025;-94
2023/07/31 11:08:27;;;;;;;2.95;2.00;;;;;;;18.58;100.00;99723.06;7667542;23;20025;-94
2023/07/31 11:11:29;;;;;;;6.33;2.20;;;;;;;18.46;100.00;99720.19;7667290;23;20025;-93
2023/07/31 11:14:30;;;;;;;4.20;1.70;;;;;;;18.51;100.00;99725.66;7667933;23;20701;-95
2023/07/31 11:17:33;;;;;;;3.50;1.90;;;;;;;18.47;100.00;99719.97;7640504;23;20530;-94
2023/07/31 11:20:37;;;;;;;2.40;1.90;;;;;;;18.42;100.00;99718.94;7640973;23;20530;-90
2023/07/31 11:23:39;;;;;;;2.70;1.90;;;;;;;18.57;100.00;99719.63;7667195;23;20037;-94
2023/07/31 11:26:54;;;;;;;2.88;1.90;;;;;;;18.36;100.00;99722.31;7667050;23;20027;-92
2023/07/31 11:30:05;;;;;;;2.60;2.30;;;;;;;18.15;100.00;99728.41;7667190;23;20021;-92
2023/07/31 11:33:09;;;;;;;3.50;2.20;;;;;;;17.99;100.00;99725.09;7638010;23;20454;-93
2023/07/31 11:36:19;;;;;;;5.20;2.42;;;;;;;17.94;100.00;99737.13;7667075;23;20371;-91
2023/07/31 11:39:20;;;;;;;3.40;2.50;;;;;;;17.95;100.00;99728.25;7639814;23;20027;-92
2023/07/31 11:42:22;;;;;;;3.00;2.30;;;;;;;18.03;100.00;99713.22;7666626;23;20100;-90
2023/07/31 11:45:30;;;;;;;2.95;1.95;;;;;;;18.24;100.00;99717.63;7666221;23;20320;-91
2023/07/31 11:48:37;;;;;;;2.63;2.10;;;;;;;18.47;100.00;99709.50;7666315;23;20045;-93
2023/07/31 11:51:39;;;;;;;2.78;1.73;;;;;;;18.62;100.00;99698.88;7666518;23;20036;-92
2023/07/31 11:54:41;;;;;;;4.03;1.80;;;;;;;18.83;100.00;99699.81;7639677;23;20055;-92
2023/07/31 11:57:46;;;;;;;3.25;1.90;;;;;;;18.83;100.00;99697.19;7665998;23;20355;-94
2023/07/31 12:00:49;;;;;;;2.25;1.67;;;;;;;18.86;100.00;99702.88;7639400;23;20028;-92
2023/07/31 12:03:52;;;;;;;2.08;1.85;;;;;;;18.92;100.00;99694.22;7667029;23;20100;-92
2023/07/31 12:06:54;;;;;;;2.55;1.95;;;;;;;18.86;100.00;99697.63;7666393;23;20022;-93
2023/07/31 12:09:59;;;;;;;2.45;2.00;;;;;;;18.75;100.00;99694.72;7665865;23;20025;-93
2023/07/31 12:13:15;;;;;;;3.25;1.80;;;;;;;18.63;100.00;99695.28;7665792;23;20025;-92
2023/07/31 12:16:17;;;;;;;2.40;1.55;;;;;;;18.60;100.00;99708.75;7664601;23;20028;-91
2023/07/31 12:19:19;;;;;;;1.88;1.40;;;;;;;18.46;100.00;99704.47;7666024;23;20025;-92
2023/07/31 12:22:21;;;;;;;1.67;1.40;;;;;;;18.42;100.00;99697.97;7665905;23;20017;-92
2023/07/31 12:25:32;;;;;;;1.65;1.33;;;;;;;18.38;100.00;99699.34;7665065;23;20432;-90
2023/07/31 12:28:45;;;;;;;2.08;1.40;;;;;;;18.38;100.00;99697.53;7665781;23;20065;-92
2023/07/31 12:31:48;;;;;;;1.58;1.33;;;;;;;18.45;100.00;99692.34;7640101;23;20020;-91
2023/07/31 12:34:51;;;;;;;2.33;1.25;;;;;;;18.48;100.00;99691.94;7665098;23;20055;-92
2023/07/31 12:37:52;;;;;;;1.50;1.25;;;;;;;18.51;100.00;99691.59;7665378;23;20032;-92
2023/07/31 12:40:55;;;;;;;1.30;1.20;;;;;;;18.41;100.00;99696.34;7638958;23;20041;-91
2023/07/31 12:43:56;;;;;;;3.55;1.20;;;;;;;18.61;100.00;99692.03;7639338;23;20478;-92
2023/07/31 12:46:58;;;;;;;1.77;1.23;;;;;;;18.92;100.00;99683.72;7665465;23;20424;-91
2023/07/31 12:50:01;;;;;;;1.10;0.80;;;;;;;19.31;100.00;99676.16;7637885;23;20031;-92
2023/07/31 12:53:03;;;;;;;0.95;0.73;;;;;;;19.67;100.00;99667.94;7665587;23;20024;-91
2023/07/31 12:56:05;;;;;;;0.75;0.50;;;;;;;20.39;100.00;99655.72;7665572;23;20017;-91
2023/07/31 12:59:07;;;;;;;0.70;0.70;;;;;;;20.71;100.00;99652.41;7665234;23;20024;-92
2023/07/31 13:02:10;;;;;;;1.15;0.88;;;;;;;20.73;100.00;99659.09;7637773;23;20017;-94
2023/07/31 13:05:13;;;;;;;0.50;0.50;;;;;;;20.60;100.00;99636.28;7639431;23;20017;-93
2023/07/31 13:08:17;;;;;;;1.80;0.60;;;;;;;20.86;100.00;99634.53;7665543;23;20610;-93
2023/07/31 13:11:19;;;;;;;1.08;0.82;;;;;;;21.02;100.00;99641.94;7664476;23;20017;-94
2023/07/31 13:14:22;;;;;;;1.15;0.80;;;;;;;21.12;100.00;99628.34;7638092;23;20126;-95
2023/07/31 13:17:24;;;;;;;1.60;0.80;;;;;;;21.40;100.00;99637.69;7666037;23;20447;-93
2023/07/31 13:20:26;;;;;;;2.58;0.93;;;;;;;21.33;100.00;99626.38;7639225;23;20309;-95
2023/07/31 13:23:29;;;;;;;1.95;0.90;;;;;;;20.88;100.00;99634.34;7638105;23;20443;-93
2023/07/31 13:26:31;;;;;;;1.33;0.90;;;;;;;20.88;100.00;99629.06;7637813;23;20035;-94
2023/07/31 13:29:33;;;;;;;1.48;0.90;;;;;;;20.86;100.00;99637.16;7639466;23;20342;-94
2023/07/31 13:32:41;;;;;;;2.65;0.73;;;;;;;21.19;100.00;99621.22;7665025;23;20067;-92
2023/07/31 13:35:43;;;;;;;1.30;0.88;;;;;;;22.06;100.00;99631.84;7662931;23;20025;-94
2023/07/31 13:38:45;;;;;;;1.13;0.88;;;;;;;22.34;100.00;99636.66;7665298;23;20115;-96
2023/07/31 13:41:48;;;;;;;1.35;0.88;;;;;;;22.27;100.00;99632.47;7664589;23;20474;-96
2023/07/31 13:44:50;;;;;;;1.13;0.75;;;;;;;22.28;100.00;99628.78;7664939;23;20473;-96
2023/07/31 13:47:52;;;;;;;2.92;0.75;;;;;;;22.04;100.00;99618.09;7638381;23;20025;-96
2023/07/31 13:50:54;;;;;;;1.00;0.90;;;;;;;21.86;100.00;99616.25;7637225;23;20028;-96
2023/07/31 13:53:56;;;;;;;1.20;0.63;;;;;;;21.65;100.00;99629.78;7665361;23;20024;-96
2023/07/31 13:56:59;;;;;;;1.50;0.52;;;;;;;21.46;100.00;99615.75;7637911;23;20020;-96
2023/07/31 14:00:02;;;;;;;1.15;0.60;;;;;;;21.33;100.00;99611.38;7665123;23;20025;-93
2023/07/31 14:03:05;;;;;;;0.60;0.57;;;;;;;21.25;100.00;99622.97;7664956;23;20107;-94
2023/07/31 14:06:07;;;;;;;0.60;0.50;;;;;;;21.01;100.00;99615.84;7638945;23;20025;-91
2023/07/31 14:09:09;;;;;;;0.90;0.65;;;;;;;20.74;100.00;99607.28;7664932;23;20017;-96